sensor_id;sensor_type;location;lat;lon;timestamp;P1;durP1;ratioP1;P2;durP2;ratioP2
55218;SDS011;65463;43.864;20.136;2023-02-19T00:01:37;76.00;;;35.85;;
55218;SDS011;65463;43.864;20.136;2023-02-19T00:04:05;82.20;;;36.33;;
55218;SDS011;65463;43.864;20.136;2023-02-19T00:06:35;83.68;;;36.20;;
55218;SDS011;65463;43.864;20.136;2023-02-19T00:09:01;72.97;;;35.53;;
55218;SDS011;65463;43.864;20.136;2023-02-19T00:11:29;70.05;;;34.42;;
55218;SDS011;65463;43.864;20.136;2023-02-19T00:13:57;71.38;;;33.90;;
55218;SDS011;65463;43.864;20.136;2023-02-19T00:16:25;69.15;;;33.40;;
55218;SDS011;65463;43.864;20.136;2023-02-19T00:18:54;69.47;;;33.40;;
55218;SDS011;65463;43.864;20.136;2023-02-19T00:21:20;67.50;;;32.53;;
55218;SDS011;65463;43.864;20.136;2023-02-19T00:23:50;68.35;;;32.03;;
55218;SDS011;65463;43.864;20.136;2023-02-19T00:26:18;71.38;;;32.67;;
55218;SDS011;65463;43.864;20.136;2023-02-19T00:28:44;119.00;;;44.28;;
55218;SDS011;65463;43.864;20.136;2023-02-19T00:31:24;76.82;;;33.42;;
55218;SDS011;65463;43.864;20.136;2023-02-19T00:33:53;81.38;;;33.10;;
55218;SDS011;65463;43.864;20.136;2023-02-19T00:36:21;88.28;;;34.85;;
55218;SDS011;65463;43.864;20.136;2023-02-19T00:38:48;79.03;;;32.83;;
55218;SDS011;65463;43.864;20.136;2023-02-19T00:41:15;80.90;;;34.50;;
55218;SDS011;65463;43.864;20.136;2023-02-19T00:46:36;71.03;;;32.75;;
55218;SDS011;65463;43.864;20.136;2023-02-19T00:49:03;77.50;;;34.92;;
55218;SDS011;65463;43.864;20.136;2023-02-19T00:51:30;79.90;;;35.70;;
55218;SDS011;65463;43.864;20.136;2023-02-19T00:53:58;77.78;;;34.65;;
55218;SDS011;65463;43.864;20.136;2023-02-19T00:56:24;78.82;;;36.35;;
55218;SDS011;65463;43.864;20.136;2023-02-19T00:58:51;87.13;;;38.70;;
55218;SDS011;65463;43.864;20.136;2023-02-19T01:01:17;74.80;;;36.03;;
55218;SDS011;65463;43.864;20.136;2023-02-19T01:03:44;87.28;;;38.67;;
55218;SDS011;65463;43.864;20.136;2023-02-19T01:06:11;132.45;;;54.30;;
55218;SDS011;65463;43.864;20.136;2023-02-19T01:08:38;94.57;;;44.45;;
55218;SDS011;65463;43.864;20.136;2023-02-19T01:11:05;91.70;;;43.42;;
55218;SDS011;65463;43.864;20.136;2023-02-19T01:13:32;113.13;;;48.33;;
55218;SDS011;65463;43.864;20.136;2023-02-19T01:16:11;106.65;;;47.25;;
55218;SDS011;65463;43.864;20.136;2023-02-19T01:18:38;101.75;;;46.10;;
55218;SDS011;65463;43.864;20.136;2023-02-19T01:21:05;103.28;;;44.92;;
55218;SDS011;65463;43.864;20.136;2023-02-19T01:23:32;126.22;;;51.17;;
55218;SDS011;65463;43.864;20.136;2023-02-19T01:25:59;91.25;;;41.40;;
55218;SDS011;65463;43.864;20.136;2023-02-19T01:28:27;109.78;;;46.83;;
55218;SDS011;65463;43.864;20.136;2023-02-19T01:30:53;118.32;;;50.85;;
55218;SDS011;65463;43.864;20.136;2023-02-19T01:33:19;116.18;;;51.08;;
55218;SDS011;65463;43.864;20.136;2023-02-19T01:35:45;124.05;;;51.55;;
55218;SDS011;65463;43.864;20.136;2023-02-19T01:38:11;95.07;;;42.42;;
55218;SDS011;65463;43.864;20.136;2023-02-19T01:40:37;104.30;;;44.90;;
55218;SDS011;65463;43.864;20.136;2023-02-19T01:43:04;132.07;;;52.88;;
55218;SDS011;65463;43.864;20.136;2023-02-19T01:45:38;100.50;;;44.30;;
55218;SDS011;65463;43.864;20.136;2023-02-19T01:48:10;91.57;;;42.15;;
55218;SDS011;65463;43.864;20.136;2023-02-19T01:50:43;106.75;;;45.33;;
55218;SDS011;65463;43.864;20.136;2023-02-19T01:53:11;106.68;;;42.88;;
55218;SDS011;65463;43.864;20.136;2023-02-19T01:55:38;102.45;;;43.55;;
55218;SDS011;65463;43.864;20.136;2023-02-19T01:58:05;94.60;;;36.55;;
55218;SDS011;65463;43.864;20.136;2023-02-19T02:00:32;84.53;;;37.28;;
55218;SDS011;65463;43.864;20.136;2023-02-19T02:02:58;83.72;;;37.45;;
55218;SDS011;65463;43.864;20.136;2023-02-19T02:05:31;97.55;;;37.40;;
55218;SDS011;65463;43.864;20.136;2023-02-19T02:08:01;94.18;;;36.00;;
55218;SDS011;65463;43.864;20.136;2023-02-19T02:10:46;109.40;;;43.67;;
55218;SDS011;65463;43.864;20.136;2023-02-19T02:13:12;87.75;;;37.42;;
55218;SDS011;65463;43.864;20.136;2023-02-19T02:16:02;121.60;;;47.20;;
55218;SDS011;65463;43.864;20.136;2023-02-19T02:23:50;92.22;;;38.08;;
55218;SDS011;65463;43.864;20.136;2023-02-19T02:31:34;90.20;;;37.58;;
55218;SDS011;65463;43.864;20.136;2023-02-19T02:34:22;126.15;;;46.75;;
55218;SDS011;65463;43.864;20.136;2023-02-19T02:36:51;98.20;;;38.80;;
55218;SDS011;65463;43.864;20.136;2023-02-19T02:39:19;94.35;;;36.20;;
55218;SDS011;65463;43.864;20.136;2023-02-19T02:41:53;97.47;;;37.60;;
55218;SDS011;65463;43.864;20.136;2023-02-19T02:44:38;85.70;;;35.90;;
55218;SDS011;65463;43.864;20.136;2023-02-19T02:47:05;106.63;;;37.42;;
55218;SDS011;65463;43.864;20.136;2023-02-19T02:49:52;92.85;;;36.53;;
55218;SDS011;65463;43.864;20.136;2023-02-19T02:52:30;111.60;;;39.05;;
55218;SDS011;65463;43.864;20.136;2023-02-19T02:55:15;108.10;;;38.03;;
55218;SDS011;65463;43.864;20.136;2023-02-19T02:57:41;107.82;;;37.58;;
55218;SDS011;65463;43.864;20.136;2023-02-19T03:00:07;100.47;;;38.55;;
55218;SDS011;65463;43.864;20.136;2023-02-19T03:02:34;90.15;;;35.55;;
55218;SDS011;65463;43.864;20.136;2023-02-19T03:05:05;80.22;;;34.70;;
55218;SDS011;65463;43.864;20.136;2023-02-19T03:08:08;77.68;;;32.67;;
55218;SDS011;65463;43.864;20.136;2023-02-19T03:10:39;75.75;;;30.52;;
55218;SDS011;65463;43.864;20.136;2023-02-19T03:13:15;62.42;;;29.83;;
55218;SDS011;65463;43.864;20.136;2023-02-19T03:16:25;64.13;;;29.00;;
55218;SDS011;65463;43.864;20.136;2023-02-19T03:19:14;63.25;;;28.48;;
55218;SDS011;65463;43.864;20.136;2023-02-19T03:21:44;66.95;;;29.52;;
55218;SDS011;65463;43.864;20.136;2023-02-19T03:24:34;67.30;;;29.55;;
55218;SDS011;65463;43.864;20.136;2023-02-19T03:27:40;69.15;;;31.38;;
55218;SDS011;65463;43.864;20.136;2023-02-19T03:30:10;73.47;;;33.03;;
55218;SDS011;65463;43.864;20.136;2023-02-19T03:32:50;68.83;;;30.77;;
55218;SDS011;65463;43.864;20.136;2023-02-19T03:35:22;71.53;;;30.35;;
55218;SDS011;65463;43.864;20.136;2023-02-19T03:40:28;83.78;;;32.63;;
55218;SDS011;65463;43.864;20.136;2023-02-19T03:43:18;79.13;;;34.00;;
55218;SDS011;65463;43.864;20.136;2023-02-19T03:46:04;77.97;;;31.80;;
55218;SDS011;65463;43.864;20.136;2023-02-19T03:48:37;75.60;;;33.67;;
55218;SDS011;65463;43.864;20.136;2023-02-19T03:53:52;77.00;;;33.13;;
55218;SDS011;65463;43.864;20.136;2023-02-19T03:56:29;83.35;;;33.53;;
55218;SDS011;65463;43.864;20.136;2023-02-19T04:01:55;80.28;;;32.03;;
55218;SDS011;65463;43.864;20.136;2023-02-19T04:04:50;72.95;;;31.25;;
55218;SDS011;65463;43.864;20.136;2023-02-19T04:07:21;75.00;;;31.00;;
55218;SDS011;65463;43.864;20.136;2023-02-19T04:09:49;78.32;;;31.33;;
55218;SDS011;65463;43.864;20.136;2023-02-19T04:12:16;75.57;;;31.15;;
55218;SDS011;65463;43.864;20.136;2023-02-19T04:17:14;69.50;;;31.77;;
55218;SDS011;65463;43.864;20.136;2023-02-19T04:19:41;70.65;;;32.72;;
55218;SDS011;65463;43.864;20.136;2023-02-19T04:22:08;69.68;;;32.92;;
55218;SDS011;65463;43.864;20.136;2023-02-19T04:24:39;76.38;;;33.88;;
55218;SDS011;65463;43.864;20.136;2023-02-19T04:27:07;71.70;;;32.60;;
55218;SDS011;65463;43.864;20.136;2023-02-19T04:29:34;77.05;;;35.65;;
55218;SDS011;65463;43.864;20.136;2023-02-19T04:32:00;71.47;;;33.15;;
55218;SDS011;65463;43.864;20.136;2023-02-19T04:34:26;74.18;;;35.30;;
55218;SDS011;65463;43.864;20.136;2023-02-19T04:36:52;67.53;;;32.17;;
55218;SDS011;65463;43.864;20.136;2023-02-19T04:39:18;70.32;;;32.17;;
55218;SDS011;65463;43.864;20.136;2023-02-19T04:41:44;67.97;;;32.95;;
55218;SDS011;65463;43.864;20.136;2023-02-19T04:44:09;63.83;;;30.95;;
55218;SDS011;65463;43.864;20.136;2023-02-19T04:46:35;71.72;;;32.00;;
55218;SDS011;65463;43.864;20.136;2023-02-19T04:49:02;59.97;;;29.80;;
55218;SDS011;65463;43.864;20.136;2023-02-19T04:51:28;64.40;;;31.45;;
55218;SDS011;65463;43.864;20.136;2023-02-19T04:53:54;63.42;;;29.90;;
55218;SDS011;65463;43.864;20.136;2023-02-19T04:56:20;67.03;;;29.95;;
55218;SDS011;65463;43.864;20.136;2023-02-19T04:58:46;65.78;;;32.20;;
55218;SDS011;65463;43.864;20.136;2023-02-19T05:01:12;70.03;;;30.83;;
55218;SDS011;65463;43.864;20.136;2023-02-19T05:03:38;64.63;;;30.92;;
55218;SDS011;65463;43.864;20.136;2023-02-19T05:06:05;64.32;;;31.30;;
55218;SDS011;65463;43.864;20.136;2023-02-19T05:08:33;84.07;;;38.10;;
55218;SDS011;65463;43.864;20.136;2023-02-19T05:10:59;92.57;;;43.60;;
55218;SDS011;65463;43.864;20.136;2023-02-19T05:13:26;87.13;;;41.70;;
55218;SDS011;65463;43.864;20.136;2023-02-19T05:16:00;77.00;;;38.38;;
55218;SDS011;65463;43.864;20.136;2023-02-19T05:18:28;75.57;;;37.40;;
55218;SDS011;65463;43.864;20.136;2023-02-19T05:20:55;73.13;;;33.90;;
55218;SDS011;65463;43.864;20.136;2023-02-19T05:23:21;82.25;;;38.47;;
55218;SDS011;65463;43.864;20.136;2023-02-19T05:25:48;75.35;;;35.88;;
55218;SDS011;65463;43.864;20.136;2023-02-19T05:28:14;66.28;;;30.77;;
55218;SDS011;65463;43.864;20.136;2023-02-19T05:30:47;56.88;;;27.95;;
55218;SDS011;65463;43.864;20.136;2023-02-19T05:35:40;56.72;;;27.45;;
55218;SDS011;65463;43.864;20.136;2023-02-19T05:38:07;63.92;;;30.27;;
55218;SDS011;65463;43.864;20.136;2023-02-19T05:40:33;58.38;;;28.20;;
55218;SDS011;65463;43.864;20.136;2023-02-19T05:42:59;62.78;;;28.42;;
55218;SDS011;65463;43.864;20.136;2023-02-19T05:45:25;57.15;;;28.15;;
55218;SDS011;65463;43.864;20.136;2023-02-19T05:47:51;62.88;;;31.40;;
55218;SDS011;65463;43.864;20.136;2023-02-19T05:50:18;70.82;;;32.13;;
55218;SDS011;65463;43.864;20.136;2023-02-19T05:52:44;60.75;;;29.52;;
55218;SDS011;65463;43.864;20.136;2023-02-19T05:55:10;64.60;;;30.45;;
55218;SDS011;65463;43.864;20.136;2023-02-19T05:57:40;61.63;;;29.70;;
55218;SDS011;65463;43.864;20.136;2023-02-19T06:00:08;64.35;;;30.85;;
55218;SDS011;65463;43.864;20.136;2023-02-19T06:02:35;64.13;;;30.92;;
55218;SDS011;65463;43.864;20.136;2023-02-19T06:05:02;67.00;;;30.77;;
55218;SDS011;65463;43.864;20.136;2023-02-19T06:07:29;73.70;;;34.67;;
55218;SDS011;65463;43.864;20.136;2023-02-19T06:09:55;87.10;;;38.75;;
55218;SDS011;65463;43.864;20.136;2023-02-19T06:12:21;77.10;;;33.92;;
55218;SDS011;65463;43.864;20.136;2023-02-19T06:14:47;72.40;;;32.90;;
55218;SDS011;65463;43.864;20.136;2023-02-19T06:17:13;74.13;;;32.05;;
55218;SDS011;65463;43.864;20.136;2023-02-19T06:19:39;67.90;;;31.02;;
55218;SDS011;65463;43.864;20.136;2023-02-19T06:22:05;64.10;;;32.13;;
55218;SDS011;65463;43.864;20.136;2023-02-19T06:24:31;68.28;;;30.73;;
55218;SDS011;65463;43.864;20.136;2023-02-19T06:26:57;74.22;;;33.60;;
55218;SDS011;65463;43.864;20.136;2023-02-19T06:29:23;68.10;;;31.98;;
55218;SDS011;65463;43.864;20.136;2023-02-19T06:31:49;68.60;;;31.05;;
55218;SDS011;65463;43.864;20.136;2023-02-19T06:34:15;74.55;;;34.17;;
55218;SDS011;65463;43.864;20.136;2023-02-19T06:36:42;77.57;;;35.65;;
55218;SDS011;65463;43.864;20.136;2023-02-19T06:39:08;105.93;;;55.47;;
55218;SDS011;65463;43.864;20.136;2023-02-19T06:41:34;75.63;;;39.13;;
55218;SDS011;65463;43.864;20.136;2023-02-19T06:44:01;74.88;;;35.53;;
55218;SDS011;65463;43.864;20.136;2023-02-19T06:46:27;70.50;;;35.33;;
55218;SDS011;65463;43.864;20.136;2023-02-19T06:48:53;70.50;;;36.72;;
55218;SDS011;65463;43.864;20.136;2023-02-19T06:51:19;85.43;;;35.25;;
55218;SDS011;65463;43.864;20.136;2023-02-19T06:53:51;82.88;;;37.08;;
55218;SDS011;65463;43.864;20.136;2023-02-19T06:58:47;94.47;;;38.88;;
55218;SDS011;65463;43.864;20.136;2023-02-19T07:01:13;121.15;;;36.45;;
55218;SDS011;65463;43.864;20.136;2023-02-19T07:03:39;157.75;;;38.30;;
55218;SDS011;65463;43.864;20.136;2023-02-19T07:06:05;231.80;;;38.85;;
55218;SDS011;65463;43.864;20.136;2023-02-19T07:08:31;225.40;;;40.30;;
55218;SDS011;65463;43.864;20.136;2023-02-19T07:10:57;201.93;;;39.67;;
55218;SDS011;65463;43.864;20.136;2023-02-19T07:13:23;218.20;;;41.55;;
55218;SDS011;65463;43.864;20.136;2023-02-19T07:15:51;286.25;;;48.35;;
55218;SDS011;65463;43.864;20.136;2023-02-19T07:18:17;328.17;;;43.08;;
55218;SDS011;65463;43.864;20.136;2023-02-19T07:20:44;353.15;;;44.92;;
55218;SDS011;65463;43.864;20.136;2023-02-19T07:23:10;291.75;;;41.70;;
55218;SDS011;65463;43.864;20.136;2023-02-19T07:25:36;236.30;;;39.38;;
55218;SDS011;65463;43.864;20.136;2023-02-19T07:28:03;262.02;;;43.60;;
55218;SDS011;65463;43.864;20.136;2023-02-19T07:30:29;208.63;;;39.78;;
55218;SDS011;65463;43.864;20.136;2023-02-19T07:32:55;225.38;;;41.08;;
55218;SDS011;65463;43.864;20.136;2023-02-19T07:35:21;230.82;;;42.22;;
55218;SDS011;65463;43.864;20.136;2023-02-19T07:37:47;230.82;;;42.83;;
55218;SDS011;65463;43.864;20.136;2023-02-19T07:40:13;195.68;;;39.67;;
55218;SDS011;65463;43.864;20.136;2023-02-19T07:42:40;212.75;;;41.83;;
55218;SDS011;65463;43.864;20.136;2023-02-19T07:45:06;228.45;;;42.55;;
55218;SDS011;65463;43.864;20.136;2023-02-19T07:47:32;217.90;;;40.92;;
55218;SDS011;65463;43.864;20.136;2023-02-19T07:49:58;199.75;;;38.38;;
55218;SDS011;65463;43.864;20.136;2023-02-19T07:52:24;113.40;;;29.58;;
55218;SDS011;65463;43.864;20.136;2023-02-19T07:54:50;100.53;;;32.08;;
55218;SDS011;65463;43.864;20.136;2023-02-19T07:57:16;75.75;;;31.08;;
55218;SDS011;65463;43.864;20.136;2023-02-19T07:59:43;86.70;;;31.25;;
55218;SDS011;65463;43.864;20.136;2023-02-19T08:02:13;76.40;;;30.52;;
55218;SDS011;65463;43.864;20.136;2023-02-19T08:04:58;76.82;;;28.55;;
55218;SDS011;65463;43.864;20.136;2023-02-19T08:07:29;98.75;;;32.88;;
55218;SDS011;65463;43.864;20.136;2023-02-19T08:09:55;102.18;;;30.38;;
55218;SDS011;65463;43.864;20.136;2023-02-19T08:12:41;115.30;;;29.80;;
55218;SDS011;65463;43.864;20.136;2023-02-19T08:15:28;88.72;;;26.83;;
55218;SDS011;65463;43.864;20.136;2023-02-19T08:17:54;94.07;;;26.33;;
55218;SDS011;65463;43.864;20.136;2023-02-19T08:20:20;88.00;;;26.02;;
55218;SDS011;65463;43.864;20.136;2023-02-19T08:22:46;83.68;;;31.15;;
55218;SDS011;65463;43.864;20.136;2023-02-19T08:25:15;82.55;;;32.20;;
55218;SDS011;65463;43.864;20.136;2023-02-19T08:27:41;82.85;;;26.98;;
55218;SDS011;65463;43.864;20.136;2023-02-19T08:30:07;85.97;;;29.98;;
55218;SDS011;65463;43.864;20.136;2023-02-19T08:32:34;73.15;;;25.88;;
55218;SDS011;65463;43.864;20.136;2023-02-19T08:35:00;73.65;;;24.52;;
55218;SDS011;65463;43.864;20.136;2023-02-19T08:37:26;83.93;;;32.15;;
55218;SDS011;65463;43.864;20.136;2023-02-19T08:39:52;90.25;;;36.85;;
55218;SDS011;65463;43.864;20.136;2023-02-19T08:42:18;70.00;;;25.75;;
55218;SDS011;65463;43.864;20.136;2023-02-19T08:44:44;74.50;;;25.52;;
55218;SDS011;65463;43.864;20.136;2023-02-19T08:47:13;77.10;;;24.63;;
55218;SDS011;65463;43.864;20.136;2023-02-19T08:49:39;71.15;;;26.17;;
55218;SDS011;65463;43.864;20.136;2023-02-19T08:52:05;74.10;;;25.05;;
55218;SDS011;65463;43.864;20.136;2023-02-19T08:54:31;73.82;;;26.30;;
55218;SDS011;65463;43.864;20.136;2023-02-19T08:56:57;85.82;;;31.52;;
55218;SDS011;65463;43.864;20.136;2023-02-19T08:59:23;76.82;;;25.77;;
55218;SDS011;65463;43.864;20.136;2023-02-19T09:01:49;94.20;;;25.95;;
55218;SDS011;65463;43.864;20.136;2023-02-19T09:04:16;97.03;;;26.70;;
55218;SDS011;65463;43.864;20.136;2023-02-19T09:06:42;103.97;;;25.88;;
55218;SDS011;65463;43.864;20.136;2023-02-19T09:09:08;94.78;;;25.60;;
55218;SDS011;65463;43.864;20.136;2023-02-19T09:11:37;107.90;;;26.63;;
55218;SDS011;65463;43.864;20.136;2023-02-19T09:14:03;83.95;;;29.85;;
55218;SDS011;65463;43.864;20.136;2023-02-19T09:16:32;90.10;;;26.25;;
55218;SDS011;65463;43.864;20.136;2023-02-19T09:18:58;76.40;;;24.05;;
55218;SDS011;65463;43.864;20.136;2023-02-19T09:21:25;85.35;;;24.30;;
55218;SDS011;65463;43.864;20.136;2023-02-19T09:23:56;90.30;;;24.85;;
55218;SDS011;65463;43.864;20.136;2023-02-19T09:26:22;112.00;;;26.00;;
55218;SDS011;65463;43.864;20.136;2023-02-19T09:28:51;84.78;;;24.27;;
55218;SDS011;65463;43.864;20.136;2023-02-19T09:31:16;86.10;;;23.33;;
55218;SDS011;65463;43.864;20.136;2023-02-19T09:33:43;100.53;;;25.00;;
55218;SDS011;65463;43.864;20.136;2023-02-19T09:36:10;79.80;;;22.50;;
55218;SDS011;65463;43.864;20.136;2023-02-19T09:38:37;76.93;;;22.42;;
55218;SDS011;65463;43.864;20.136;2023-02-19T09:41:05;72.53;;;21.17;;
55218;SDS011;65463;43.864;20.136;2023-02-19T09:43:53;85.38;;;21.80;;
55218;SDS011;65463;43.864;20.136;2023-02-19T09:46:32;60.25;;;19.33;;
55218;SDS011;65463;43.864;20.136;2023-02-19T09:49:19;31.73;;;11.18;;
55218;SDS011;65463;43.864;20.136;2023-02-19T09:54:36;52.42;;;13.70;;
55218;SDS011;65463;43.864;20.136;2023-02-19T09:57:03;51.22;;;13.55;;
55218;SDS011;65463;43.864;20.136;2023-02-19T09:59:45;50.22;;;13.40;;
55218;SDS011;65463;43.864;20.136;2023-02-19T10:02:17;64.80;;;16.40;;
55218;SDS011;65463;43.864;20.136;2023-02-19T10:04:46;55.83;;;14.18;;
55218;SDS011;65463;43.864;20.136;2023-02-19T10:07:22;60.30;;;14.13;;
55218;SDS011;65463;43.864;20.136;2023-02-19T10:12:36;74.03;;;16.55;;
55218;SDS011;65463;43.864;20.136;2023-02-19T10:15:21;60.92;;;14.68;;
55218;SDS011;65463;43.864;20.136;2023-02-19T10:18:09;60.10;;;14.07;;
55218;SDS011;65463;43.864;20.136;2023-02-19T10:20:35;38.53;;;12.57;;
55218;SDS011;65463;43.864;20.136;2023-02-19T10:23:05;46.63;;;14.07;;
55218;SDS011;65463;43.864;20.136;2023-02-19T10:25:33;52.65;;;20.33;;
55218;SDS011;65463;43.864;20.136;2023-02-19T10:28:00;32.83;;;12.43;;
55218;SDS011;65463;43.864;20.136;2023-02-19T10:30:28;97.03;;;52.58;;
55218;SDS011;65463;43.864;20.136;2023-02-19T10:35:34;33.78;;;12.27;;
55218;SDS011;65463;43.864;20.136;2023-02-19T10:38:02;20.30;;;10.77;;
55218;SDS011;65463;43.864;20.136;2023-02-19T10:40:31;23.63;;;10.85;;
55218;SDS011;65463;43.864;20.136;2023-02-19T10:42:58;20.88;;;10.23;;
55218;SDS011;65463;43.864;20.136;2023-02-19T10:47:59;19.67;;;9.90;;
55218;SDS011;65463;43.864;20.136;2023-02-19T10:50:27;25.42;;;12.13;;
55218;SDS011;65463;43.864;20.136;2023-02-19T10:52:54;15.10;;;9.15;;
55218;SDS011;65463;43.864;20.136;2023-02-19T10:57:47;15.68;;;9.07;;
55218;SDS011;65463;43.864;20.136;2023-02-19T11:02:43;11.30;;;7.47;;
55218;SDS011;65463;43.864;20.136;2023-02-19T11:07:46;11.05;;;7.43;;
55218;SDS011;65463;43.864;20.136;2023-02-19T11:12:52;9.00;;;5.72;;
55218;SDS011;65463;43.864;20.136;2023-02-19T11:15:21;8.93;;;5.70;;
55218;SDS011;65463;43.864;20.136;2023-02-19T11:18:33;8.82;;;5.65;;
55218;SDS011;65463;43.864;20.136;2023-02-19T11:23:28;9.15;;;5.50;;
55218;SDS011;65463;43.864;20.136;2023-02-19T11:25:58;9.35;;;6.07;;
55218;SDS011;65463;43.864;20.136;2023-02-19T11:28:38;9.63;;;4.75;;
55218;SDS011;65463;43.864;20.136;2023-02-19T11:31:13;6.85;;;4.00;;
55218;SDS011;65463;43.864;20.136;2023-02-19T11:38:51;9.00;;;4.07;;
55218;SDS011;65463;43.864;20.136;2023-02-19T11:41:27;9.98;;;4.20;;
55218;SDS011;65463;43.864;20.136;2023-02-19T11:58:06;8.65;;;4.28;;
55218;SDS011;65463;43.864;20.136;2023-02-19T12:00:35;8.93;;;4.60;;
55218;SDS011;65463;43.864;20.136;2023-02-19T12:22:39;8.77;;;4.50;;
55218;SDS011;65463;43.864;20.136;2023-02-19T12:26:11;8.77;;;5.38;;
55218;SDS011;65463;43.864;20.136;2023-02-19T12:47:03;8.77;;;5.10;;
55218;SDS011;65463;43.864;20.136;2023-02-19T12:49:32;8.35;;;5.30;;
55218;SDS011;65463;43.864;20.136;2023-02-19T12:54:51;9.38;;;6.50;;
55218;SDS011;65463;43.864;20.136;2023-02-19T12:57:27;10.65;;;7.55;;
55218;SDS011;65463;43.864;20.136;2023-02-19T13:00:45;10.32;;;6.28;;
55218;SDS011;65463;43.864;20.136;2023-02-19T13:08:53;8.70;;;5.07;;
55218;SDS011;65463;43.864;20.136;2023-02-19T13:11:27;7.18;;;5.22;;
55218;SDS011;65463;43.864;20.136;2023-02-19T13:14:18;10.02;;;7.05;;
55218;SDS011;65463;43.864;20.136;2023-02-19T13:17:05;9.57;;;5.28;;
55218;SDS011;65463;43.864;20.136;2023-02-19T13:19:43;14.30;;;5.47;;
55218;SDS011;65463;43.864;20.136;2023-02-19T13:22:17;9.77;;;5.88;;
55218;SDS011;65463;43.864;20.136;2023-02-19T13:25:16;28.75;;;16.38;;
55218;SDS011;65463;43.864;20.136;2023-02-19T13:27:48;14.43;;;8.25;;
55218;SDS011;65463;43.864;20.136;2023-02-19T13:30:35;11.13;;;5.30;;
55218;SDS011;65463;43.864;20.136;2023-02-19T13:38:36;14.68;;;8.50;;
55218;SDS011;65463;43.864;20.136;2023-02-19T13:41:03;28.00;;;15.05;;
55218;SDS011;65463;43.864;20.136;2023-02-19T13:43:30;22.30;;;11.20;;
55218;SDS011;65463;43.864;20.136;2023-02-19T13:46:02;42.88;;;22.13;;
55218;SDS011;65463;43.864;20.136;2023-02-19T13:48:30;16.17;;;10.02;;
55218;SDS011;65463;43.864;20.136;2023-02-19T14:04:18;17.27;;;9.98;;
55218;SDS011;65463;43.864;20.136;2023-02-19T14:12:16;11.85;;;6.50;;
55218;SDS011;65463;43.864;20.136;2023-02-19T14:14:43;8.43;;;5.68;;
55218;SDS011;65463;43.864;20.136;2023-02-19T14:25:07;8.27;;;5.10;;
55218;SDS011;65463;43.864;20.136;2023-02-19T14:27:35;6.43;;;4.25;;
55218;SDS011;65463;43.864;20.136;2023-02-19T14:30:02;6.35;;;4.50;;
55218;SDS011;65463;43.864;20.136;2023-02-19T14:32:29;9.38;;;5.20;;
55218;SDS011;65463;43.864;20.136;2023-02-19T14:34:55;12.57;;;5.90;;
55218;SDS011;65463;43.864;20.136;2023-02-19T14:37:22;7.60;;;4.60;;
55218;SDS011;65463;43.864;20.136;2023-02-19T14:39:50;7.40;;;5.03;;
55218;SDS011;65463;43.864;20.136;2023-02-19T14:42:21;7.55;;;5.35;;
55218;SDS011;65463;43.864;20.136;2023-02-19T14:44:57;11.27;;;5.20;;
55218;SDS011;65463;43.864;20.136;2023-02-19T14:47:24;8.10;;;5.80;;
55218;SDS011;65463;43.864;20.136;2023-02-19T14:49:53;9.18;;;5.40;;
55218;SDS011;65463;43.864;20.136;2023-02-19T14:55:33;14.35;;;7.55;;
55218;SDS011;65463;43.864;20.136;2023-02-19T14:57:40;12.32;;;7.03;;
55218;SDS011;65463;43.864;20.136;2023-02-19T15:00:20;14.57;;;6.93;;
55218;SDS011;65463;43.864;20.136;2023-02-19T15:02:47;11.93;;;7.00;;
55218;SDS011;65463;43.864;20.136;2023-02-19T15:05:15;13.10;;;6.75;;
55218;SDS011;65463;43.864;20.136;2023-02-19T15:07:41;9.95;;;6.70;;
55218;SDS011;65463;43.864;20.136;2023-02-19T15:10:08;10.35;;;6.20;;
55218;SDS011;65463;43.864;20.136;2023-02-19T15:15:38;12.48;;;6.55;;
55218;SDS011;65463;43.864;20.136;2023-02-19T15:18:13;12.05;;;7.38;;
55218;SDS011;65463;43.864;20.136;2023-02-19T15:20:42;13.07;;;6.53;;
55218;SDS011;65463;43.864;20.136;2023-02-19T15:23:10;13.70;;;7.15;;
55218;SDS011;65463;43.864;20.136;2023-02-19T15:25:40;13.20;;;7.80;;
55218;SDS011;65463;43.864;20.136;2023-02-19T15:30:49;15.18;;;7.80;;
55218;SDS011;65463;43.864;20.136;2023-02-19T15:33:16;12.55;;;7.30;;
55218;SDS011;65463;43.864;20.136;2023-02-19T15:35:46;14.60;;;8.70;;
55218;SDS011;65463;43.864;20.136;2023-02-19T15:38:13;16.90;;;9.73;;
55218;SDS011;65463;43.864;20.136;2023-02-19T15:40:40;17.40;;;9.13;;
55218;SDS011;65463;43.864;20.136;2023-02-19T15:43:10;11.90;;;7.82;;
55218;SDS011;65463;43.864;20.136;2023-02-19T15:45:43;12.18;;;7.80;;
55218;SDS011;65463;43.864;20.136;2023-02-19T15:48:16;15.50;;;8.05;;
55218;SDS011;65463;43.864;20.136;2023-02-19T15:50:46;12.77;;;7.80;;
55218;SDS011;65463;43.864;20.136;2023-02-19T15:53:19;12.75;;;7.70;;
55218;SDS011;65463;43.864;20.136;2023-02-19T15:56:06;14.23;;;7.28;;
55218;SDS011;65463;43.864;20.136;2023-02-19T16:03:36;20.38;;;11.40;;
55218;SDS011;65463;43.864;20.136;2023-02-19T16:06:09;16.95;;;9.43;;
55218;SDS011;65463;43.864;20.136;2023-02-19T16:08:39;18.27;;;9.23;;
55218;SDS011;65463;43.864;20.136;2023-02-19T16:14:17;23.73;;;12.82;;
55218;SDS011;65463;43.864;20.136;2023-02-19T16:16:44;17.13;;;9.30;;
55218;SDS011;65463;43.864;20.136;2023-02-19T16:19:11;13.82;;;7.85;;
55218;SDS011;65463;43.864;20.136;2023-02-19T16:21:37;13.75;;;7.60;;
55218;SDS011;65463;43.864;20.136;2023-02-19T16:24:14;17.63;;;8.80;;
55218;SDS011;65463;43.864;20.136;2023-02-19T16:26:42;27.15;;;12.13;;
55218;SDS011;65463;43.864;20.136;2023-02-19T16:29:19;20.63;;;10.63;;
55218;SDS011;65463;43.864;20.136;2023-02-19T16:32:27;20.05;;;10.45;;
55218;SDS011;65463;43.864;20.136;2023-02-19T16:37:54;18.45;;;10.13;;
55218;SDS011;65463;43.864;20.136;2023-02-19T16:42:55;24.20;;;10.15;;
55218;SDS011;65463;43.864;20.136;2023-02-19T16:45:42;17.63;;;9.65;;
55218;SDS011;65463;43.864;20.136;2023-02-19T16:48:09;17.02;;;10.10;;
55218;SDS011;65463;43.864;20.136;2023-02-19T16:50:35;16.75;;;10.20;;
55218;SDS011;65463;43.864;20.136;2023-02-19T16:53:05;15.02;;;9.60;;
55218;SDS011;65463;43.864;20.136;2023-02-19T16:55:32;16.08;;;8.90;;
55218;SDS011;65463;43.864;20.136;2023-02-19T16:57:59;17.13;;;9.57;;
55218;SDS011;65463;43.864;20.136;2023-02-19T17:00:26;15.10;;;8.20;;
55218;SDS011;65463;43.864;20.136;2023-02-19T17:03:00;18.55;;;9.70;;
55218;SDS011;65463;43.864;20.136;2023-02-19T17:05:33;15.45;;;9.45;;
55218;SDS011;65463;43.864;20.136;2023-02-19T17:07:59;20.15;;;10.30;;
55218;SDS011;65463;43.864;20.136;2023-02-19T17:10:26;25.48;;;13.10;;
55218;SDS011;65463;43.864;20.136;2023-02-19T17:12:53;67.47;;;26.42;;
55218;SDS011;65463;43.864;20.136;2023-02-19T17:15:20;61.10;;;24.00;;
55218;SDS011;65463;43.864;20.136;2023-02-19T17:17:47;35.60;;;16.08;;
55218;SDS011;65463;43.864;20.136;2023-02-19T17:22:41;25.10;;;12.27;;
55218;SDS011;65463;43.864;20.136;2023-02-19T17:25:09;23.30;;;11.82;;